• Join FlightAware (Why Join?)
  • Login
  • US Flag 
04:21PM EDT


 

Airport Tracker/Info


-or-


 

Live Flight TrackerFlight Track Log ✈ N884FT ✈ 28-Feb-2014 ✈ KMLB - KSGJ

Flight Track Log - Related Links

Times and Time Zones

All times are in EST time to prevent confusion due to time zone crossing. See the N884FT flight status page for this flight to view local times or setup timezone preferences in your user account.

Time Position Orientation Groundspeed Altitude Reporting Facility
EST Latitude Longitude Course Direction KTS MPH feet Rate Location/Type
08:15PM 28.1000 -80.6167 360° North 77 89 400  Level Orlando TRACON
08:16PM 28.1167 -80.6167 360° North 83 96 1,200 1,020 Climbing Orlando TRACON
08:17PM 28.1167 -80.6500 270° West 125 144 2,200 900 Climbing Orlando TRACON
08:18PM 28.1333 -80.6667 319° Northwest 107 123 3,000 720 Climbing Orlando TRACON
08:19PM 28.1667 -80.6833 336° Northwest 110 127 3,700 660 Climbing Orlando TRACON
08:20PM 28.1833 -80.7000 319° Northwest 112 129 4,500 600 Climbing Orlando TRACON
08:21PM 28.2167 -80.7167 336° Northwest 115 132 5,000 300 Climbing Orlando TRACON
08:22PM 28.2500 -80.7333 336° Northwest 131 151 5,100  Climbing Orlando TRACON
08:23PM 28.2833 -80.7500 336° Northwest 160 184 5,100 -60 Level Orlando TRACON
08:24PM 28.3333 -80.7667 344° North 162 186 5,000 -60 Descending Orlando TRACON
08:25PM 28.3833 -80.7833 344° North 158 182 5,000  Level Orlando TRACON
08:26PM 28.4167 -80.8000 336° Northwest 159 183 5,000  Level Orlando TRACON
08:27PM 28.4667 -80.8000 360° North 159 183 5,000  Level Orlando TRACON
08:28PM 28.5000 -80.8167 336° Northwest 159 183 5,000  Level Orlando TRACON
08:29PM 28.5500 -80.8333 344° North 161 185 5,000  Level Orlando TRACON
08:30PM 28.5833 -80.8500 336° Northwest 159 183 5,000  Level Orlando TRACON
08:31PM 28.6333 -80.8667 344° North 161 185 5,000  Level Orlando TRACON
08:32PM 28.6667 -80.8833 336° Northwest 161 185 5,000  Level Orlando TRACON
08:33PM 28.7167 -80.9000 344° North 159 183 5,000  Level Orlando TRACON
08:35PM 28.8069 -80.9378 340° North 163 188 5,000  Level Jacksonville Center
08:36PM 28.8531 -80.9536 343° North 163 188 5,000  Level Jacksonville Center
08:37PM 28.8972 -80.9669 345° North 161 185 5,000  Level Jacksonville Center
08:38PM 28.9392 -80.9850 339° North 163 188 5,000  Level Jacksonville Center
08:39PM 28.9833 -81.0008 343° North 162 186 5,000  Level Jacksonville Center
08:41PM 29.0317 -81.0189 342° North 165 190 5,000  Level Jacksonville Center
08:41PM 29.0672 -81.0325 342° North 161 185 5,000  Level Jacksonville Center
08:42PM 29.1133 -81.0483 343° North 161 185 5,000  Level Jacksonville Center
08:43PM 29.1553 -81.0642 342° North 162 186 5,000  Level Jacksonville Center
08:44PM 29.1953 -81.0800 341° North 162 186 5,000  Level Jacksonville Center
08:46PM 29.2478 -81.0981 351° North 164 189 5,000  Level Jacksonville Center
08:47PM 29.2917 -81.1117 345° North 162 186 5,000  Level Jacksonville Center
08:48PM 29.3358 -81.1297 340° North 162 186 5,000  Level Jacksonville Center
08:49PM 29.3736 -81.1433 343° North 163 188 5,000  Level Jacksonville Center
08:49PM 29.4008 -81.1572 336° Northwest 162 186 5,000  Level Jacksonville Center
08:50PM 29.4597 -81.1778 343° North 161 185 5,000  Level Jacksonville Center
08:51PM 29.5017 -81.1936 342° North 158 182 5,000  Level Jacksonville Center
08:53PM 29.5436 -81.2072 344° North 154 177 5,000  Level Jacksonville Center
08:54PM 29.5833 -81.2233 341° North 153 176 5,000  Level Jacksonville Center
08:56PM 29.6650 -81.2458 347° North 151 174 5,000 -60 Level Jacksonville Center
08:57PM 29.7133 -81.2569 349° North 153 176 4,900 -300 Descending Jacksonville Center
08:58PM 29.7569 -81.2442 14° North 172 198 4,400 -660 Descending Jacksonville Center
08:59PM 29.8067 -81.2242 19° North 153 176 3,600 -720 Descending Jacksonville Center
09:00PM 29.8461 -81.2092 18° North 145 167 2,900 -720 Descending Jacksonville Center
09:01PM 29.8778 -81.2206 343° North 141 162 2,300 -480 Descending Jacksonville Center
09:02PM 29.8969 -81.2514 306° West 122 140 2,000 -540 Descending Jacksonville Center
09:03PM 29.9203 -81.2822 311° West 115 132 1,200 -660 Descending Jacksonville Center
09:04PM 29.9394 -81.3131 306° West 101 116 600 -180 Descending Jacksonville Center
09:06PM 29.9669 -81.3533 308° West 109 125 700 300 Climbing Jacksonville Center
09:06PM 29.9733 -81.3675 298° West 86 99 1,500 1,320 Climbing Jacksonville Center
09:07PM 29.9697 -81.4036 263° West 102 117 2,900 1,080 Climbing Jacksonville Center
09:08PM 29.9575 -81.4231 234° Southwest 91 105 3,700 600 Climbing Jacksonville Center
09:10PM 29.9242 -81.4283 188° South 119 137 4,200 480 Climbing Jacksonville Center
09:11PM 29.8822 -81.4314 184° South 129 148 4,800 480 Climbing Jacksonville Center
09:12PM 29.8508 -81.4056 144° Southeast 136 157 5,300 420 Climbing Jacksonville Center
09:13PM 29.8192 -81.3892 156° South 141 162 5,700 420 Climbing Jacksonville Center